AUA793 LOWW-LOWG
Flight info
| Callsign | AUA793 |
|---|---|
| Flight time | 0h 21m |
| Altitude | 14000 |
| Route | RUPET RUPET3M |
| Aircraft | MD82/M-SDFGIRWY/S |
Departure
| Time | 2026-05-06 17:16 |
|---|---|
| Airport | Vienna International Airport (LOWW) |
Arrival
| Time | 2026-05-06 17:38 |
|---|---|
| Airport | Graz Airport (LOWG) |
| Time | Latitude | Longitude | Altitude | Speed | Heading |
|---|---|---|---|---|---|
| 2026-05-06 16:31 | 48.12046 | 16.55459 | 626 ft | 0 kts | 295° |
| 2026-05-06 17:10 | 48.12049 | 16.55448 | 612 ft | 2 kts | 295° |
| 2026-05-06 17:10 | 48.12060 | 16.55413 | 618 ft | 5 kts | 295° |
| 2026-05-06 17:10 | 48.12062 | 16.55381 | 620 ft | 2 kts | 252° |
| 2026-05-06 17:11 | 48.12047 | 16.55361 | 612 ft | 3 kts | 206° |
| 2026-05-06 17:11 | 48.12019 | 16.55348 | 609 ft | 5 kts | 197° |
| 2026-05-06 17:11 | 48.11962 | 16.55317 | 619 ft | 11 kts | 196° |
| 2026-05-06 17:11 | 48.11910 | 16.55360 | 615 ft | 11 kts | 124° |
| 2026-05-06 17:12 | 48.11889 | 16.55444 | 620 ft | 15 kts | 109° |
| 2026-05-06 17:12 | 48.11843 | 16.55615 | 615 ft | 19 kts | 114° |
| 2026-05-06 17:12 | 48.11787 | 16.55791 | 619 ft | 19 kts | 116° |
| 2026-05-06 17:12 | 48.11726 | 16.55971 | 622 ft | 20 kts | 117° |
| 2026-05-06 17:13 | 48.11664 | 16.56155 | 617 ft | 20 kts | 116° |
| 2026-05-06 17:13 | 48.11603 | 16.56342 | 613 ft | 21 kts | 116° |
| 2026-05-06 17:13 | 48.11539 | 16.56536 | 622 ft | 21 kts | 115° |
| 2026-05-06 17:13 | 48.11476 | 16.56733 | 616 ft | 21 kts | 116° |
| 2026-05-06 17:14 | 48.11409 | 16.56934 | 613 ft | 22 kts | 117° |
| 2026-05-06 17:14 | 48.11342 | 16.57139 | 621 ft | 22 kts | 115° |
| 2026-05-06 17:14 | 48.11275 | 16.57348 | 615 ft | 22 kts | 115° |
| 2026-05-06 17:14 | 48.11207 | 16.57560 | 613 ft | 23 kts | 116° |
| 2026-05-06 17:15 | 48.11135 | 16.57775 | 615 ft | 24 kts | 116° |
| 2026-05-06 17:15 | 48.11063 | 16.57998 | 619 ft | 24 kts | 116° |
| 2026-05-06 17:15 | 48.10973 | 16.58206 | 624 ft | 24 kts | 139° |
| 2026-05-06 17:15 | 48.10778 | 16.58329 | 616 ft | 48 kts | 164° |
| 2026-05-06 17:16 | 48.10198 | 16.58576 | 617 ft | 126 kts | 164° |
| 2026-05-06 17:16 | 48.09178 | 16.59020 | 1007 ft | 162 kts | 165° |
| 2026-05-06 17:16 | 48.08075 | 16.59518 | 1930 ft | 169 kts | 167° |
| 2026-05-06 17:16 | 48.06973 | 16.59996 | 2909 ft | 163 kts | 171° |
| 2026-05-06 17:17 | 48.05896 | 16.59991 | 3767 ft | 159 kts | 204° |
| 2026-05-06 17:17 | 48.04909 | 16.59001 | 4201 ft | 184 kts | 219° |
| 2026-05-06 17:17 | 48.03854 | 16.57686 | 4654 ft | 210 kts | 220° |
| 2026-05-06 17:17 | 48.02711 | 16.56158 | 5145 ft | 231 kts | 223° |
| 2026-05-06 17:18 | 48.01538 | 16.54388 | 5768 ft | 244 kts | 226° |
| 2026-05-06 17:18 | 48.00415 | 16.52535 | 6857 ft | 236 kts | 228° |
| 2026-05-06 17:18 | 47.99362 | 16.50709 | 7991 ft | 228 kts | 229° |
| 2026-05-06 17:18 | 47.98367 | 16.48955 | 8994 ft | 228 kts | 229° |
| 2026-05-06 17:19 | 47.97314 | 16.47089 | 9654 ft | 243 kts | 229° |
| 2026-05-06 17:19 | 47.96194 | 16.45114 | 10240 ft | 255 kts | 229° |
| 2026-05-06 17:19 | 47.95015 | 16.43050 | 10847 ft | 266 kts | 229° |
| 2026-05-06 17:19 | 47.94015 | 16.41308 | 11447 ft | 271 kts | 228° |
| 2026-05-06 17:20 | 47.92779 | 16.39162 | 12284 ft | 273 kts | 228° |
| 2026-05-06 17:20 | 47.91731 | 16.37342 | 12981 ft | 276 kts | 228° |
| 2026-05-06 17:20 | 47.90451 | 16.35124 | 13409 ft | 287 kts | 228° |
| 2026-05-06 17:20 | 47.89151 | 16.32882 | 13592 ft | 286 kts | 228° |
| 2026-05-06 17:21 | 47.87829 | 16.30610 | 13678 ft | 299 kts | 228° |
| 2026-05-06 17:21 | 47.86408 | 16.28175 | 13718 ft | 324 kts | 228° |
| 2026-05-06 17:21 | 47.84899 | 16.25584 | 13741 ft | 334 kts | 228° |
| 2026-05-06 17:21 | 47.83392 | 16.23000 | 13749 ft | 331 kts | 229° |
| 2026-05-06 17:22 | 47.81876 | 16.20398 | 13753 ft | 335 kts | 229° |
| 2026-05-06 17:22 | 47.80342 | 16.17758 | 13750 ft | 335 kts | 229° |
| 2026-05-06 17:22 | 47.78864 | 16.15212 | 13754 ft | 329 kts | 229° |
| 2026-05-06 17:22 | 47.77384 | 16.12665 | 13752 ft | 326 kts | 229° |
| 2026-05-06 17:23 | 47.75884 | 16.10088 | 13761 ft | 333 kts | 229° |
| 2026-05-06 17:23 | 47.74371 | 16.07496 | 13759 ft | 332 kts | 229° |
| 2026-05-06 17:23 | 47.72856 | 16.04906 | 13763 ft | 329 kts | 229° |
| 2026-05-06 17:23 | 47.71342 | 16.02339 | 13763 ft | 332 kts | 228° |
| 2026-05-06 17:24 | 47.69834 | 15.99790 | 13777 ft | 329 kts | 229° |
| 2026-05-06 17:24 | 47.68308 | 15.97204 | 13778 ft | 335 kts | 229° |
| 2026-05-06 17:24 | 47.66765 | 15.94586 | 13779 ft | 336 kts | 229° |
| 2026-05-06 17:24 | 47.65252 | 15.92020 | 13774 ft | 330 kts | 229° |
| 2026-05-06 17:25 | 47.63738 | 15.89438 | 13782 ft | 332 kts | 229° |
| 2026-05-06 17:25 | 47.62229 | 15.86877 | 13793 ft | 330 kts | 228° |
| 2026-05-06 17:25 | 47.60703 | 15.84300 | 13793 ft | 336 kts | 229° |
| 2026-05-06 17:25 | 47.59156 | 15.81690 | 13796 ft | 333 kts | 229° |
| 2026-05-06 17:26 | 47.57658 | 15.79141 | 13784 ft | 329 kts | 229° |
| 2026-05-06 17:26 | 47.56160 | 15.76590 | 13786 ft | 329 kts | 228° |
| 2026-05-06 17:26 | 47.54666 | 15.74040 | 13723 ft | 325 kts | 228° |
| 2026-05-06 17:26 | 47.53192 | 15.71532 | 13334 ft | 319 kts | 227° |
| 2026-05-06 17:27 | 47.51731 | 15.69068 | 12745 ft | 318 kts | 227° |
| 2026-05-06 17:27 | 47.50275 | 15.66634 | 12101 ft | 314 kts | 227° |
| 2026-05-06 17:27 | 47.48840 | 15.64230 | 11417 ft | 309 kts | 227° |
| 2026-05-06 17:27 | 47.47437 | 15.61870 | 10819 ft | 301 kts | 228° |
| 2026-05-06 17:28 | 47.46073 | 15.59592 | 10419 ft | 290 kts | 227° |
| 2026-05-06 17:28 | 47.44764 | 15.57440 | 10264 ft | 274 kts | 227° |
| 2026-05-06 17:28 | 47.43523 | 15.55388 | 10092 ft | 261 kts | 228° |
| 2026-05-06 17:28 | 47.42344 | 15.53427 | 9881 ft | 251 kts | 228° |
| 2026-05-06 17:29 | 47.41179 | 15.51470 | 9221 ft | 257 kts | 229° |
| 2026-05-06 17:29 | 47.39999 | 15.49473 | 8432 ft | 262 kts | 228° |
| 2026-05-06 17:29 | 47.38788 | 15.47432 | 7822 ft | 263 kts | 228° |
| 2026-05-06 17:29 | 47.37600 | 15.45447 | 7525 ft | 252 kts | 227° |
| 2026-05-06 17:30 | 47.36469 | 15.43552 | 7377 ft | 241 kts | 228° |
| 2026-05-06 17:30 | 47.35367 | 15.41718 | 7461 ft | 241 kts | 228° |
| 2026-05-06 17:30 | 47.34258 | 15.39855 | 7499 ft | 241 kts | 229° |
| 2026-05-06 17:30 | 47.33163 | 15.37992 | 7488 ft | 239 kts | 229° |
| 2026-05-06 17:31 | 47.32015 | 15.36232 | 7491 ft | 241 kts | 217° |
| 2026-05-06 17:31 | 47.30449 | 15.35408 | 7503 ft | 246 kts | 184° |
| 2026-05-06 17:31 | 47.28831 | 15.35676 | 8171 ft | 223 kts | 176° |
| 2026-05-06 17:31 | 47.27221 | 15.36078 | 7455 ft | 247 kts | 175° |
| 2026-05-06 17:32 | 47.25548 | 15.36520 | 7017 ft | 244 kts | 174° |
| 2026-05-06 17:32 | 47.23925 | 15.37006 | 6650 ft | 233 kts | 173° |
| 2026-05-06 17:32 | 47.22370 | 15.37496 | 6292 ft | 226 kts | 173° |
| 2026-05-06 17:32 | 47.20848 | 15.37965 | 5972 ft | 218 kts | 173° |
| 2026-05-06 17:33 | 47.19408 | 15.38398 | 5683 ft | 207 kts | 174° |
| 2026-05-06 17:33 | 47.18027 | 15.38805 | 5415 ft | 197 kts | 175° |
| 2026-05-06 17:33 | 47.16690 | 15.39172 | 5074 ft | 195 kts | 174° |
| 2026-05-06 17:33 | 47.15371 | 15.39527 | 4844 ft | 191 kts | 174° |
| 2026-05-06 17:34 | 47.14095 | 15.39880 | 4640 ft | 181 kts | 174° |
| 2026-05-06 17:34 | 47.12890 | 15.40208 | 4387 ft | 173 kts | 173° |
| 2026-05-06 17:34 | 47.11696 | 15.40500 | 3918 ft | 176 kts | 176° |
| 2026-05-06 17:34 | 47.10477 | 15.40834 | 3376 ft | 181 kts | 172° |
| 2026-05-06 17:35 | 47.09306 | 15.41205 | 3205 ft | 154 kts | 172° |
| 2026-05-06 17:35 | 47.08265 | 15.41531 | 2933 ft | 153 kts | 173° |
| 2026-05-06 17:35 | 47.07240 | 15.41820 | 2721 ft | 151 kts | 173° |
| 2026-05-06 17:36 | 47.05158 | 15.42384 | 2149 ft | 149 kts | 174° |
| 2026-05-06 17:36 | 47.04179 | 15.42612 | 1969 ft | 139 kts | 174° |
| 2026-05-06 17:36 | 47.03254 | 15.42858 | 1766 ft | 131 kts | 172° |
| 2026-05-06 17:36 | 47.02379 | 15.43064 | 1573 ft | 123 kts | 173° |
| 2026-05-06 17:37 | 47.01564 | 15.43289 | 1379 ft | 119 kts | 171° |
| 2026-05-06 17:37 | 47.00684 | 15.43521 | 1245 ft | 142 kts | 172° |
| 2026-05-06 17:37 | 46.99734 | 15.43802 | 1119 ft | 134 kts | 172° |
| 2026-05-06 17:37 | 46.98911 | 15.44021 | 1106 ft | 94 kts | 170° |
| 2026-05-06 17:38 | 46.98537 | 15.44115 | 1101 ft | 21 kts | 173° |
| 2026-05-06 17:38 | 46.98512 | 15.44120 | 1099 ft | 1 kts | 147° |
| 2026-05-06 17:38 | 46.98507 | 15.44138 | 1100 ft | 1 kts | 89° |
| 2026-05-06 17:38 | 46.98511 | 15.44149 | 1101 ft | 1 kts | 38° |
| 2026-05-06 17:39 | 46.98563 | 15.44143 | 1100 ft | 26 kts | 343° |
| 2026-05-06 17:39 | 46.98751 | 15.44063 | 1104 ft | 29 kts | 345° |
| 2026-05-06 17:39 | 46.98952 | 15.44003 | 1105 ft | 29 kts | 348° |
| 2026-05-06 17:39 | 46.99155 | 15.43947 | 1107 ft | 28 kts | 354° |
| 2026-05-06 17:40 | 46.99302 | 15.44037 | 1105 ft | 23 kts | 49° |
| 2026-05-06 17:40 | 46.99413 | 15.44212 | 1106 ft | 20 kts | 46° |
| 2026-05-06 17:40 | 46.99479 | 15.44258 | 1110 ft | 6 kts | 0° |
| 2026-05-06 17:40 | 46.99523 | 15.44249 | 1111 ft | 7 kts | 349° |
| 2026-05-06 17:41 | 46.99568 | 15.44243 | 1114 ft | 5 kts | 21° |
| 2026-05-06 17:41 | 46.99573 | 15.44249 | 1114 ft | 0 kts | 41° |
| 2026-05-06 17:42 | 46.99537 | 15.44333 | 1105 ft | 0 kts | 129° |